createdAt,value
2023-09-18T00:01:22.108Z,20.06
2023-09-18T00:03:49.498Z,20.11
2023-09-18T00:06:16.787Z,19.75
2023-09-18T00:08:44.014Z,20.03
2023-09-18T00:11:12.662Z,19.71
2023-09-18T00:13:39.991Z,19.67
2023-09-18T00:16:07.254Z,19.47
2023-09-18T00:18:34.871Z,19.73
2023-09-18T00:21:02.220Z,19.99
2023-09-18T00:23:29.544Z,19.77
2023-09-18T00:25:56.786Z,19.48
2023-09-18T00:28:23.989Z,19.41
2023-09-18T00:30:51.565Z,19.53
2023-09-18T00:33:20.766Z,19.52
2023-09-18T00:35:52.901Z,19.36
2023-09-18T00:38:20.792Z,19.62
2023-09-18T00:40:48.485Z,19.71
2023-09-18T00:43:15.796Z,19.60
2023-09-18T00:45:46.609Z,19.38
2023-09-18T00:48:17.443Z,19.45
2023-09-18T00:50:46.795Z,19.54
2023-09-18T00:53:19.685Z,19.61
2023-09-18T00:55:47.740Z,19.56
2023-09-18T00:58:15.042Z,19.46
2023-09-18T01:00:42.385Z,19.65
2023-09-18T01:03:11.033Z,19.50
2023-09-18T01:05:38.431Z,19.59
2023-09-18T01:08:06.310Z,19.45
2023-09-18T01:10:58.690Z,19.21
2023-09-18T01:13:38.084Z,19.27
2023-09-18T01:16:28.427Z,19.05
2023-09-18T01:18:55.793Z,18.91
2023-09-18T01:21:23.505Z,19.24
2023-09-18T01:23:50.775Z,19.22
2023-09-18T01:26:18.198Z,19.46
2023-09-18T01:28:45.503Z,19.26
2023-09-18T01:31:12.772Z,19.00
2023-09-18T01:33:40.695Z,18.95
2023-09-18T01:36:09.736Z,19.03
2023-09-18T01:38:38.619Z,19.02
2023-09-18T01:41:05.892Z,19.19
2023-09-18T01:43:33.220Z,19.13
2023-09-18T01:46:00.475Z,19.16
2023-09-18T01:48:27.680Z,19.13
2023-09-18T01:50:54.911Z,19.16
2023-09-18T01:53:22.173Z,19.09
2023-09-18T01:55:49.388Z,19.03
2023-09-18T01:58:16.922Z,18.74
2023-09-18T02:00:44.718Z,18.80
2023-09-18T02:03:22.115Z,18.80
2023-09-18T02:05:59.949Z,18.96
2023-09-18T02:08:27.520Z,18.97
2023-09-18T02:10:54.781Z,18.76
2023-09-18T02:13:22.183Z,19.07
2023-09-18T02:15:49.359Z,18.96
2023-09-18T02:18:17.098Z,19.13
2023-09-18T02:20:48.476Z,18.89
2023-09-18T02:23:17.134Z,19.08
2023-09-18T02:25:44.528Z,18.83
2023-09-18T02:28:11.804Z,18.94
2023-09-18T02:30:38.987Z,18.86
2023-09-18T02:33:06.367Z,18.77
2023-09-18T02:35:33.682Z,18.70
2023-09-18T02:38:03.312Z,18.90
2023-09-18T02:40:30.534Z,18.83
2023-09-18T02:42:57.713Z,18.66
2023-09-18T02:45:24.920Z,18.56
2023-09-18T02:47:52.242Z,18.61
2023-09-18T02:50:19.518Z,18.77
2023-09-18T02:52:46.697Z,18.58
2023-09-18T02:55:14.568Z,18.96
2023-09-18T02:57:41.882Z,18.90
2023-09-18T03:00:10.513Z,18.68
2023-09-18T03:02:37.819Z,18.82
2023-09-18T03:05:05.894Z,18.48
2023-09-18T03:07:33.193Z,18.82
2023-09-18T03:10:00.461Z,18.66
2023-09-18T03:12:27.748Z,18.50
2023-09-18T03:14:55.044Z,18.51
2023-09-18T03:17:22.406Z,18.64
2023-09-18T03:19:50.373Z,18.58
2023-09-18T03:22:17.773Z,18.51
2023-09-18T03:24:44.988Z,18.65
2023-09-18T03:27:12.182Z,18.65
2023-09-18T03:29:39.351Z,18.71
2023-09-18T03:32:06.845Z,18.64
2023-09-18T03:34:34.385Z,18.65
2023-09-18T03:37:01.674Z,18.65
2023-09-18T03:39:29.146Z,18.54
2023-09-18T03:41:56.342Z,18.25
2023-09-18T03:44:24.031Z,17.99
2023-09-18T03:46:51.269Z,17.81
2023-09-18T03:49:18.491Z,18.21
2023-09-18T03:51:45.756Z,18.55
2023-09-18T03:54:13.085Z,18.18
2023-09-18T03:56:40.351Z,18.51
2023-09-18T03:59:07.576Z,18.41
2023-09-18T04:01:34.790Z,18.54
2023-09-18T04:04:05.549Z,18.20
2023-09-18T04:06:47.237Z,18.20
2023-09-18T04:09:16.348Z,18.36
2023-09-18T04:11:43.619Z,18.31
2023-09-18T04:14:10.892Z,18.12
2023-09-18T04:16:40.946Z,18.01
2023-09-18T04:19:09.373Z,18.00
2023-09-18T04:21:36.962Z,18.12
2023-09-18T04:24:04.641Z,18.05
2023-09-18T04:26:32.223Z,18.02
2023-09-18T04:29:02.959Z,17.85
2023-09-18T04:31:30.285Z,18.00
2023-09-18T04:33:57.618Z,17.97
2023-09-18T04:36:25.885Z,18.20
2023-09-18T04:38:53.473Z,18.13
2023-09-18T04:41:20.964Z,17.92
2023-09-18T04:43:48.283Z,18.23
2023-09-18T04:46:16.738Z,18.28
2023-09-18T04:48:44.055Z,18.31
2023-09-18T04:51:11.634Z,17.77
2023-09-18T04:53:39.020Z,17.83
2023-09-18T04:56:06.258Z,17.97
2023-09-18T04:58:33.555Z,18.31
2023-09-18T05:01:05.952Z,18.29
2023-09-18T05:03:35.952Z,18.23
2023-09-18T05:06:05.225Z,18.42
2023-09-18T05:08:32.725Z,18.33
2023-09-18T05:11:00.555Z,18.33
2023-09-18T05:13:27.780Z,18.46
2023-09-18T05:15:55.069Z,18.45
2023-09-18T05:18:22.820Z,18.28
2023-09-18T05:20:50.135Z,18.48
2023-09-18T05:23:19.166Z,18.52
2023-09-18T05:25:46.576Z,18.51
2023-09-18T05:28:13.782Z,18.65
2023-09-18T05:30:41.867Z,18.68
2023-09-18T05:33:10.165Z,18.77
2023-09-18T05:35:45.538Z,18.80
2023-09-18T05:38:15.141Z,18.62
2023-09-18T05:40:43.038Z,18.80
2023-09-18T05:43:11.133Z,19.01
2023-09-18T05:45:39.186Z,18.98
2023-09-18T05:48:06.790Z,19.11
2023-09-18T05:50:37.102Z,18.87
2023-09-18T05:53:05.319Z,19.07
2023-09-18T05:55:34.966Z,19.01
2023-09-18T05:58:05.272Z,18.79
2023-09-18T06:00:32.735Z,18.96
2023-09-18T06:03:00.954Z,19.07
2023-09-18T06:05:28.465Z,19.01
2023-09-18T06:07:55.713Z,19.08
2023-09-18T06:10:22.940Z,19.11
2023-09-18T06:12:50.136Z,19.18
2023-09-18T06:15:17.367Z,19.28
2023-09-18T06:17:44.982Z,19.58
2023-09-18T06:20:17.108Z,19.73
2023-09-18T06:22:44.832Z,19.65
2023-09-18T06:25:12.208Z,19.69
2023-09-18T06:27:39.824Z,19.61
2023-09-18T06:30:08.138Z,19.61
2023-09-18T06:32:35.700Z,19.77
2023-09-18T06:35:03.116Z,19.63
2023-09-18T06:37:30.425Z,19.84
2023-09-18T06:40:00.440Z,19.68
2023-09-18T06:42:27.794Z,19.84
2023-09-18T06:44:55.575Z,20.10
2023-09-18T06:47:25.247Z,19.96
2023-09-18T06:49:52.880Z,20.16
2023-09-18T06:52:20.260Z,20.30
2023-09-18T06:54:47.440Z,20.24
2023-09-18T06:57:14.693Z,20.47
2023-09-18T06:59:41.994Z,20.55
2023-09-18T07:02:09.310Z,20.72
2023-09-18T07:04:36.590Z,20.81
2023-09-18T07:07:04.245Z,20.93
2023-09-18T07:09:31.756Z,20.92
2023-09-18T07:11:59.122Z,20.96
2023-09-18T07:14:26.363Z,20.96
2023-09-18T07:16:53.608Z,21.01
2023-09-18T07:19:20.853Z,20.99
2023-09-18T07:21:48.096Z,20.94
2023-09-18T07:24:18.154Z,20.95
2023-09-18T07:26:47.989Z,20.91
2023-09-18T07:29:16.366Z,21.07
2023-09-18T07:31:45.003Z,21.13
2023-09-18T07:34:14.522Z,21.13
2023-09-18T07:36:41.925Z,21.06
2023-09-18T07:39:09.316Z,20.98
2023-09-18T07:41:36.677Z,21.08
2023-09-18T07:44:04.600Z,21.23
2023-09-18T07:46:31.802Z,21.01
2023-09-18T07:48:58.976Z,21.08
2023-09-18T07:51:26.148Z,20.99
2023-09-18T07:53:53.391Z,21.11
2023-09-18T07:56:20.607Z,21.17
2023-09-18T07:58:48.107Z,21.15
2023-09-18T08:01:17.580Z,21.28
2023-09-18T08:03:45.023Z,21.24
2023-09-18T08:06:12.878Z,21.28
2023-09-18T08:08:40.754Z,21.42
2023-09-18T08:11:12.086Z,21.30
2023-09-18T08:13:39.283Z,21.55
2023-09-18T08:16:08.386Z,21.36
2023-09-18T08:18:36.660Z,21.31
2023-09-18T08:21:05.718Z,21.26
2023-09-18T08:23:33.705Z,21.28
2023-09-18T08:26:01.463Z,21.24
2023-09-18T08:28:28.818Z,21.37
2023-09-18T08:30:56.222Z,21.44
2023-09-18T08:33:23.485Z,21.52
2023-09-18T08:35:50.943Z,21.47
2023-09-18T08:38:18.342Z,21.50
2023-09-18T08:40:45.764Z,21.73
2023-09-18T08:43:17.375Z,22.06
2023-09-18T08:45:53.465Z,22.12
2023-09-18T08:48:22.729Z,22.05
2023-09-18T08:50:52.507Z,22.28
2023-09-18T08:53:19.953Z,22.28
2023-09-18T08:55:47.149Z,22.52
2023-09-18T08:58:15.576Z,22.47
2023-09-18T09:00:42.881Z,22.61
2023-09-18T09:03:11.024Z,22.63
2023-09-18T09:05:38.600Z,23.03
2023-09-18T09:08:05.867Z,23.62
2023-09-18T09:10:33.050Z,23.67
2023-09-18T09:13:01.719Z,23.62
2023-09-18T09:15:50.778Z,23.67
2023-09-18T09:18:18.560Z,23.69
2023-09-18T09:21:00.602Z,23.64
2023-09-18T09:23:31.157Z,23.80
2023-09-18T09:26:17.577Z,23.95
2023-09-18T09:28:46.751Z,24.05
2023-09-18T09:31:33.913Z,23.89
2023-09-18T09:34:03.467Z,23.80
2023-09-18T09:36:31.631Z,23.71
2023-09-18T09:39:00.013Z,23.69
2023-09-18T09:41:31.076Z,23.60
2023-09-18T09:43:59.720Z,23.59
2023-09-18T09:46:27.554Z,23.58
2023-09-18T09:49:06.496Z,23.57
2023-09-18T09:51:35.596Z,23.60
2023-09-18T09:54:03.470Z,23.62
2023-09-18T09:56:52.035Z,23.65
2023-09-18T09:59:20.700Z,23.61
2023-09-18T10:01:51.330Z,23.61
2023-09-18T10:04:21.143Z,23.51
2023-09-18T10:07:07.002Z,23.47
2023-09-18T10:09:40.085Z,23.44
2023-09-18T10:12:12.950Z,23.43
2023-09-18T10:14:59.778Z,23.38
2023-09-18T10:17:31.135Z,23.38
2023-09-18T10:20:10.394Z,23.37
2023-09-18T10:22:47.659Z,23.31
2023-09-18T10:25:21.657Z,23.29
2023-09-18T10:27:51.026Z,23.23
2023-09-18T10:30:19.397Z,23.21
2023-09-18T10:32:47.591Z,23.31
2023-09-18T10:35:16.344Z,23.33
2023-09-18T10:37:46.891Z,23.34
2023-09-18T10:40:14.553Z,23.30
2023-09-18T10:42:43.244Z,23.33
2023-09-18T10:45:14.187Z,23.31
2023-09-18T10:47:46.669Z,23.39
2023-09-18T10:50:25.180Z,23.42
2023-09-18T10:52:52.530Z,23.38
2023-09-18T10:55:22.348Z,23.44
2023-09-18T10:57:55.719Z,23.44
2023-09-18T11:00:28.802Z,23.49
2023-09-18T11:03:28.794Z,23.45
2023-09-18T11:06:13.934Z,23.44
2023-09-18T11:08:51.016Z,23.56
2023-09-18T11:11:21.972Z,23.78
2023-09-18T11:13:55.811Z,23.98
2023-09-18T11:16:29.104Z,24.33
2023-09-18T11:18:59.854Z,24.38
2023-09-18T11:21:33.473Z,24.34
2023-09-18T11:24:17.037Z,24.24
2023-09-18T11:26:48.980Z,24.29
2023-09-18T11:29:23.218Z,24.32
2023-09-18T11:31:57.782Z,24.34
2023-09-18T11:34:32.422Z,24.44
2023-09-18T11:36:59.993Z,24.38
2023-09-18T11:39:41.722Z,24.24
2023-09-18T11:42:17.022Z,24.10
2023-09-18T11:44:47.899Z,24.04
2023-09-18T11:47:20.466Z,24.15
2023-09-18T11:49:59.499Z,24.39
2023-09-18T11:52:30.454Z,24.37
2023-09-18T11:55:00.877Z,24.55
2023-09-18T11:57:29.717Z,24.77
2023-09-18T12:00:01.310Z,24.63
2023-09-18T12:02:39.424Z,24.54
2023-09-18T12:05:19.498Z,24.75
2023-09-18T12:07:48.170Z,24.75
2023-09-18T12:10:19.825Z,24.57
2023-09-18T12:12:48.321Z,24.47
2023-09-18T12:15:21.085Z,24.20
2023-09-18T12:17:48.639Z,24.09
2023-09-18T12:20:22.544Z,24.13
2023-09-18T12:22:52.013Z,24.09
2023-09-18T12:25:19.928Z,24.21
2023-09-18T12:27:52.224Z,24.36
2023-09-18T12:30:22.074Z,24.53
2023-09-18T12:32:52.313Z,24.73
2023-09-18T12:35:20.148Z,25.20
2023-09-18T12:37:47.524Z,25.36
2023-09-18T12:40:33.989Z,25.57
2023-09-18T12:43:02.683Z,25.45
2023-09-18T12:45:31.353Z,25.12
2023-09-18T12:48:00.701Z,24.93
2023-09-18T12:50:29.065Z,24.68
2023-09-18T12:53:16.363Z,24.73
2023-09-18T12:55:44.329Z,24.72
2023-09-18T12:58:14.717Z,24.60
2023-09-18T13:00:50.914Z,24.55
2023-09-18T13:03:19.522Z,24.62
2023-09-18T13:05:48.335Z,24.59
2023-09-18T13:08:15.782Z,24.54
2023-09-18T13:10:56.318Z,24.42
2023-09-18T13:13:24.896Z,24.36
2023-09-18T13:15:55.878Z,24.37
2023-09-18T13:18:24.760Z,24.18
2023-09-18T13:20:54.748Z,24.14
2023-09-18T13:23:29.353Z,24.27
2023-09-18T13:26:01.989Z,24.30
2023-09-18T13:28:31.858Z,24.27
2023-09-18T13:31:00.732Z,24.16
2023-09-18T13:33:28.165Z,24.11
2023-09-18T13:35:56.997Z,23.94
2023-09-18T13:38:27.192Z,23.98
2023-09-18T13:40:58.192Z,23.98
2023-09-18T13:43:25.714Z,23.98
2023-09-18T13:45:52.938Z,24.02
2023-09-18T13:48:20.486Z,23.84
2023-09-18T13:50:53.105Z,23.95
2023-09-18T13:53:20.277Z,23.91
2023-09-18T13:55:47.409Z,23.96
2023-09-18T13:58:14.780Z,23.99
2023-09-18T14:00:44.604Z,23.80
2023-09-18T14:03:16.320Z,23.96
2023-09-18T14:05:43.696Z,23.80
2023-09-18T14:08:11.022Z,23.73
2023-09-18T14:10:40.812Z,23.69
2023-09-18T14:13:08.641Z,23.81
2023-09-18T14:15:35.920Z,23.67
2023-09-18T14:18:04.592Z,23.81
2023-09-18T14:20:31.919Z,23.74
2023-09-18T14:22:59.154Z,23.73
2023-09-18T14:25:26.454Z,23.76
2023-09-18T14:27:53.834Z,23.66
2023-09-18T14:30:21.343Z,23.67
2023-09-18T14:32:49.357Z,23.74
2023-09-18T14:35:16.709Z,23.58
2023-09-18T14:37:43.954Z,23.41
2023-09-18T14:40:13.249Z,23.57
2023-09-18T14:42:41.022Z,23.58
2023-09-18T14:45:09.944Z,23.59
2023-09-18T14:47:37.933Z,23.60
2023-09-18T14:50:06.870Z,23.59
2023-09-18T14:52:34.115Z,23.69
2023-09-18T14:55:02.758Z,23.62
2023-09-18T14:57:30.129Z,23.53
2023-09-18T14:59:57.347Z,23.56
2023-09-18T15:02:30.072Z,23.37
2023-09-18T15:04:57.397Z,23.40
2023-09-18T15:07:24.722Z,23.39
2023-09-18T15:09:51.981Z,23.45
2023-09-18T15:12:19.198Z,23.47
2023-09-18T15:14:46.528Z,23.45
2023-09-18T15:17:14.260Z,23.43
2023-09-18T15:19:44.554Z,23.39
2023-09-18T15:22:11.834Z,23.45
2023-09-18T15:24:39.105Z,23.45
2023-09-18T15:27:06.764Z,23.46
2023-09-18T15:29:35.746Z,23.46
2023-09-18T15:32:06.471Z,23.43
2023-09-18T15:34:34.491Z,23.35
2023-09-18T15:37:05.036Z,23.29
2023-09-18T15:39:35.338Z,23.44
2023-09-18T15:42:02.557Z,23.21
2023-09-18T15:44:29.791Z,23.27
2023-09-18T15:46:57.024Z,23.30
2023-09-18T15:49:24.262Z,23.26
2023-09-18T15:51:51.454Z,23.35
2023-09-18T15:54:19.091Z,23.21
2023-09-18T15:56:46.611Z,23.07
2023-09-18T15:59:13.804Z,23.11
2023-09-18T16:01:41.246Z,22.97
2023-09-18T16:04:08.983Z,23.14
2023-09-18T16:06:36.771Z,23.34
2023-09-18T16:09:07.287Z,23.29
2023-09-18T16:11:34.636Z,23.03
2023-09-18T16:14:01.901Z,22.98
2023-09-18T16:16:29.530Z,23.11
2023-09-18T16:18:58.402Z,23.10
2023-09-18T16:21:25.883Z,23.01
2023-09-18T16:23:54.074Z,23.02
2023-09-18T16:26:22.126Z,22.82
2023-09-18T16:28:49.352Z,22.81
2023-09-18T16:31:16.594Z,22.89
2023-09-18T16:33:44.426Z,22.83
2023-09-18T16:36:11.693Z,22.84
2023-09-18T16:38:42.701Z,22.72
2023-09-18T16:41:11.298Z,22.70
2023-09-18T16:43:39.246Z,22.68
2023-09-18T16:46:07.032Z,22.65
2023-09-18T16:48:35.557Z,22.65
2023-09-18T16:51:22.467Z,22.60
2023-09-18T16:53:50.068Z,22.60
2023-09-18T16:56:17.897Z,22.54
2023-09-18T16:58:47.358Z,22.45
2023-09-18T17:01:14.909Z,22.35
2023-09-18T17:03:43.551Z,22.42
2023-09-18T17:06:12.110Z,22.37
2023-09-18T17:08:40.673Z,22.35
2023-09-18T17:11:08.418Z,22.32
2023-09-18T17:13:35.614Z,22.42
2023-09-18T17:16:04.200Z,22.32
2023-09-18T17:18:31.873Z,22.20
2023-09-18T17:20:59.176Z,22.17
2023-09-18T17:23:26.863Z,22.20
2023-09-18T17:25:54.057Z,22.23
2023-09-18T17:28:21.232Z,22.12
2023-09-18T17:30:51.560Z,22.10
2023-09-18T17:33:19.271Z,22.06
2023-09-18T17:35:48.362Z,22.12
2023-09-18T17:38:15.767Z,22.07
2023-09-18T17:40:43.075Z,22.01
2023-09-18T17:43:10.278Z,22.05
2023-09-18T17:45:37.577Z,22.02
2023-09-18T17:48:07.960Z,21.98
2023-09-18T17:50:35.818Z,22.04
2023-09-18T17:53:03.241Z,22.01
2023-09-18T17:55:30.579Z,21.84
2023-09-18T17:57:59.247Z,22.00
2023-09-18T18:00:26.649Z,21.84
2023-09-18T18:03:07.247Z,21.72
2023-09-18T18:05:52.961Z,21.88
2023-09-18T18:08:20.844Z,21.90
2023-09-18T18:10:48.394Z,21.85
2023-09-18T18:13:16.430Z,21.90
2023-09-18T18:15:44.311Z,21.95
2023-09-18T18:18:13.828Z,21.87
2023-09-18T18:20:46.026Z,21.91
2023-09-18T18:23:13.958Z,21.83
2023-09-18T18:25:41.593Z,21.80
2023-09-18T18:28:10.173Z,21.84
2023-09-18T18:30:37.421Z,21.78
2023-09-18T18:33:05.792Z,21.76
2023-09-18T18:35:33.129Z,21.65
2023-09-18T18:38:00.601Z,21.87
2023-09-18T18:40:28.557Z,21.69
2023-09-18T18:42:55.754Z,21.74
2023-09-18T18:45:27.064Z,21.80
2023-09-18T18:47:54.934Z,21.70
2023-09-18T18:50:22.662Z,21.80
2023-09-18T18:52:50.201Z,21.66
2023-09-18T18:55:17.942Z,21.63
2023-09-18T18:57:45.187Z,21.56
2023-09-18T19:00:13.084Z,21.67
2023-09-18T19:02:41.334Z,21.42
2023-09-18T19:05:10.816Z,21.52
2023-09-18T19:07:38.258Z,21.48
2023-09-18T19:10:06.382Z,21.44
2023-09-18T19:12:41.459Z,21.42
2023-09-18T19:15:10.831Z,21.35
2023-09-18T19:17:38.195Z,21.33
2023-09-18T19:20:06.538Z,21.43
2023-09-18T19:22:35.468Z,21.44
2023-09-18T19:25:05.563Z,21.42
2023-09-18T19:27:37.877Z,21.38
2023-09-18T19:30:10.237Z,21.41
2023-09-18T19:32:40.174Z,21.35
2023-09-18T19:35:08.528Z,21.06
2023-09-18T19:37:36.001Z,21.23
2023-09-18T19:40:03.833Z,21.12
2023-09-18T19:42:31.263Z,21.21
2023-09-18T19:44:58.489Z,21.19
2023-09-18T19:47:25.707Z,21.20
2023-09-18T19:49:52.901Z,21.25
2023-09-18T19:52:20.125Z,21.14
2023-09-18T19:54:47.431Z,21.17
2023-09-18T19:57:15.203Z,21.17
2023-09-18T19:59:42.456Z,21.25
2023-09-18T20:02:10.144Z,21.15
2023-09-18T20:04:37.329Z,21.08
2023-09-18T20:07:07.421Z,21.10
2023-09-18T20:09:34.712Z,21.12
2023-09-18T20:12:01.926Z,21.15
2023-09-18T20:14:32.208Z,20.99
2023-09-18T20:17:00.597Z,21.03
2023-09-18T20:19:28.144Z,21.10
2023-09-18T20:21:58.406Z,20.92
2023-09-18T20:24:25.884Z,20.96
2023-09-18T20:26:53.086Z,20.90
2023-09-18T20:29:20.333Z,20.93
2023-09-18T20:31:47.653Z,20.98
2023-09-18T20:34:14.872Z,20.92
2023-09-18T20:36:43.105Z,20.94
2023-09-18T20:39:10.651Z,20.68
2023-09-18T20:41:38.035Z,20.83
2023-09-18T20:44:05.676Z,20.78
2023-09-18T20:46:33.115Z,20.93
2023-09-18T20:51:32.836Z,20.98
2023-09-18T20:54:01.626Z,20.80
2023-09-18T20:56:29.875Z,20.96
2023-09-18T20:59:04.569Z,20.84
2023-09-18T21:01:32.527Z,20.89
2023-09-18T21:03:59.843Z,20.88
2023-09-18T21:06:27.806Z,20.67
2023-09-18T21:08:55.209Z,20.83
2023-09-18T21:11:36.678Z,20.87
2023-09-18T21:14:05.464Z,20.72
2023-09-18T21:16:32.861Z,20.85
2023-09-18T21:19:00.281Z,20.71
2023-09-18T21:21:27.822Z,20.75
2023-09-18T21:23:55.256Z,20.70
2023-09-18T21:26:22.839Z,20.74
2023-09-18T21:28:50.788Z,20.75
2023-09-18T21:31:21.889Z,20.83
2023-09-18T21:33:53.066Z,20.67
2023-09-18T21:36:24.813Z,20.80
2023-09-18T21:38:53.009Z,20.74
2023-09-18T21:41:21.587Z,20.81
2023-09-18T21:43:49.074Z,20.81
2023-09-18T21:46:16.701Z,20.58
2023-09-18T21:48:45.155Z,20.58
2023-09-18T21:51:17.388Z,20.53
2023-09-18T21:53:48.154Z,20.40
2023-09-18T21:56:15.644Z,20.49
2023-09-18T21:58:42.915Z,20.29
2023-09-18T22:01:10.304Z,20.20
2023-09-18T22:03:41.013Z,20.25
2023-09-18T22:06:11.920Z,20.20
2023-09-18T22:08:39.754Z,20.06
2023-09-18T22:11:08.101Z,19.60
2023-09-18T22:13:38.768Z,19.23
2023-09-18T22:16:06.575Z,19.23
2023-09-18T22:18:34.170Z,19.10
2023-09-18T22:23:37.545Z,19.00
2023-09-18T22:26:04.851Z,18.97
2023-09-18T22:28:32.149Z,18.80
2023-09-18T22:30:59.412Z,18.87
2023-09-18T22:33:28.159Z,19.00
2023-09-18T22:35:56.127Z,19.17
2023-09-18T22:39:05.045Z,19.02
2023-09-18T22:41:32.414Z,18.65
2023-09-18T22:44:56.122Z,18.71
2023-09-18T22:48:20.834Z,18.68
2023-09-18T22:51:44.895Z,18.72
2023-09-18T22:54:12.032Z,18.72
2023-09-18T22:56:39.175Z,18.48
2023-09-18T22:59:06.680Z,18.48
2023-09-18T23:01:34.123Z,18.44
2023-09-18T23:04:01.671Z,18.35
2023-09-18T23:06:29.278Z,18.22
2023-09-18T23:08:56.601Z,18.30
2023-09-18T23:11:25.153Z,18.60
2023-09-18T23:13:53.001Z,18.53
2023-09-18T23:16:26.186Z,18.77
2023-09-18T23:18:53.575Z,18.43
2023-09-18T23:21:21.859Z,18.59
2023-09-18T23:23:49.236Z,18.16
2023-09-18T23:26:16.676Z,18.41
2023-09-18T23:28:46.209Z,18.54
2023-09-18T23:31:14.962Z,18.32
2023-09-18T23:33:46.372Z,18.40
2023-09-18T23:36:13.674Z,18.01
2023-09-18T23:38:42.054Z,18.25
2023-09-18T23:41:10.069Z,18.39
2023-09-18T23:43:37.652Z,18.26
2023-09-18T23:46:09.191Z,17.96
2023-09-18T23:48:36.753Z,18.13
2023-09-18T23:51:05.874Z,18.36
2023-09-18T23:53:34.019Z,18.39
2023-09-18T23:56:04.024Z,18.07
2023-09-18T23:58:31.328Z,17.99
